sensor_id;sensor_type;location;lat;lon;timestamp;temperature;humidity
24446;DHT22;13347;50.984;5.822;2024-03-29T00:01:52;10.20;99.90
24446;DHT22;13347;50.984;5.822;2024-03-29T00:04:18;10.20;99.90
24446;DHT22;13347;50.984;5.822;2024-03-29T00:06:44;10.20;99.90
24446;DHT22;13347;50.984;5.822;2024-03-29T00:09:10;10.20;99.90
24446;DHT22;13347;50.984;5.822;2024-03-29T00:11:36;10.00;99.90
24446;DHT22;13347;50.984;5.822;2024-03-29T00:14:02;10.10;99.90
24446;DHT22;13347;50.984;5.822;2024-03-29T00:16:29;10.10;99.90
24446;DHT22;13347;50.984;5.822;2024-03-29T00:18:55;10.00;99.90
24446;DHT22;13347;50.984;5.822;2024-03-29T00:21:21;10.00;99.90
24446;DHT22;13347;50.984;5.822;2024-03-29T00:23:47;10.00;99.90
24446;DHT22;13347;50.984;5.822;2024-03-29T00:26:13;10.00;99.90
24446;DHT22;13347;50.984;5.822;2024-03-29T00:28:39;10.00;99.90
24446;DHT22;13347;50.984;5.822;2024-03-29T00:31:05;9.90;99.90
24446;DHT22;13347;50.984;5.822;2024-03-29T00:33:32;9.90;99.90
24446;DHT22;13347;50.984;5.822;2024-03-29T00:35:58;9.90;99.90
24446;DHT22;13347;50.984;5.822;2024-03-29T00:38:24;9.90;99.90
24446;DHT22;13347;50.984;5.822;2024-03-29T00:40:50;9.80;99.90
24446;DHT22;13347;50.984;5.822;2024-03-29T00:43:16;9.80;99.90
24446;DHT22;13347;50.984;5.822;2024-03-29T00:45:42;9.80;99.90
24446;DHT22;13347;50.984;5.822;2024-03-29T00:48:07;9.90;99.90
24446;DHT22;13347;50.984;5.822;2024-03-29T00:50:35;9.90;99.90
24446;DHT22;13347;50.984;5.822;2024-03-29T00:53:01;9.90;99.90
24446;DHT22;13347;50.984;5.822;2024-03-29T00:55:27;9.90;99.90
24446;DHT22;13347;50.984;5.822;2024-03-29T00:57:52;9.90;99.90
24446;DHT22;13347;50.984;5.822;2024-03-29T01:00:18;9.90;99.90
24446;DHT22;13347;50.984;5.822;2024-03-29T01:02:44;9.90;99.90
24446;DHT22;13347;50.984;5.822;2024-03-29T01:05:10;9.90;1.00
24446;DHT22;13347;50.984;5.822;2024-03-29T01:07:38;9.90;1.00
24446;DHT22;13347;50.984;5.822;2024-03-29T01:10:05;9.90;1.00
24446;DHT22;13347;50.984;5.822;2024-03-29T01:12:32;9.90;1.00
24446;DHT22;13347;50.984;5.822;2024-03-29T01:14:58;9.90;1.00
24446;DHT22;13347;50.984;5.822;2024-03-29T01:17:24;9.90;1.00
24446;DHT22;13347;50.984;5.822;2024-03-29T01:19:50;9.90;1.00
24446;DHT22;13347;50.984;5.822;2024-03-29T01:22:16;9.90;1.00
24446;DHT22;13347;50.984;5.822;2024-03-29T01:24:43;9.90;1.00
24446;DHT22;13347;50.984;5.822;2024-03-29T01:27:09;9.90;1.00
24446;DHT22;13347;50.984;5.822;2024-03-29T01:29:35;10.00;1.00
24446;DHT22;13347;50.984;5.822;2024-03-29T01:32:01;10.00;1.00
24446;DHT22;13347;50.984;5.822;2024-03-29T01:34:27;10.10;1.00
24446;DHT22;13347;50.984;5.822;2024-03-29T01:36:53;10.10;1.00
24446;DHT22;13347;50.984;5.822;2024-03-29T01:39:19;10.10;1.00
24446;DHT22;13347;50.984;5.822;2024-03-29T01:41:46;10.20;1.00
24446;DHT22;13347;50.984;5.822;2024-03-29T01:44:12;10.20;1.00
24446;DHT22;13347;50.984;5.822;2024-03-29T01:46:39;10.20;1.00
24446;DHT22;13347;50.984;5.822;2024-03-29T01:49:06;10.30;1.00
24446;DHT22;13347;50.984;5.822;2024-03-29T01:51:35;10.30;99.90
24446;DHT22;13347;50.984;5.822;2024-03-29T01:54:03;10.40;99.90
24446;DHT22;13347;50.984;5.822;2024-03-29T01:56:30;10.40;99.90
24446;DHT22;13347;50.984;5.822;2024-03-29T01:58:59;10.40;99.90
24446;DHT22;13347;50.984;5.822;2024-03-29T02:01:26;10.50;99.90
24446;DHT22;13347;50.984;5.822;2024-03-29T02:03:54;10.60;99.90
24446;DHT22;13347;50.984;5.822;2024-03-29T02:06:22;10.70;99.90
24446;DHT22;13347;50.984;5.822;2024-03-29T02:08:49;10.70;99.90
24446;DHT22;13347;50.984;5.822;2024-03-29T02:11:18;10.70;99.90
24446;DHT22;13347;50.984;5.822;2024-03-29T02:13:45;10.80;99.90
24446;DHT22;13347;50.984;5.822;2024-03-29T02:16:14;10.90;99.90
24446;DHT22;13347;50.984;5.822;2024-03-29T02:18:40;10.90;99.90
24446;DHT22;13347;50.984;5.822;2024-03-29T02:21:07;10.90;99.90
24446;DHT22;13347;50.984;5.822;2024-03-29T02:23:35;10.90;99.90
24446;DHT22;13347;50.984;5.822;2024-03-29T02:26:04;10.90;99.90
24446;DHT22;13347;50.984;5.822;2024-03-29T02:28:31;10.90;99.90
24446;DHT22;13347;50.984;5.822;2024-03-29T02:30:58;10.90;99.90
24446;DHT22;13347;50.984;5.822;2024-03-29T02:33:25;10.90;99.90
24446;DHT22;13347;50.984;5.822;2024-03-29T02:35:52;10.70;99.90
24446;DHT22;13347;50.984;5.822;2024-03-29T02:38:19;10.50;1.00
24446;DHT22;13347;50.984;5.822;2024-03-29T02:40:46;10.30;1.00
24446;DHT22;13347;50.984;5.822;2024-03-29T02:43:14;10.10;47.60
24446;DHT22;13347;50.984;5.822;2024-03-29T02:45:42;9.80;1.00
24446;DHT22;13347;50.984;5.822;2024-03-29T02:48:09;9.70;9.70
24446;DHT22;13347;50.984;5.822;2024-03-29T02:50:36;9.60;1.00
24446;DHT22;13347;50.984;5.822;2024-03-29T02:53:02;9.50;99.90
24446;DHT22;13347;50.984;5.822;2024-03-29T02:55:29;9.40;1.00
24446;DHT22;13347;50.984;5.822;2024-03-29T02:57:55;9.40;1.00
24446;DHT22;13347;50.984;5.822;2024-03-29T03:00:23;9.30;1.00
24446;DHT22;13347;50.984;5.822;2024-03-29T03:02:49;9.20;1.00
24446;DHT22;13347;50.984;5.822;2024-03-29T03:05:16;9.20;1.00
24446;DHT22;13347;50.984;5.822;2024-03-29T03:07:42;9.10;99.90
24446;DHT22;13347;50.984;5.822;2024-03-29T03:10:26;9.10;1.00
24446;DHT22;13347;50.984;5.822;2024-03-29T03:13:11;9.10;1.00
24446;DHT22;13347;50.984;5.822;2024-03-29T03:15:39;9.00;1.00
24446;DHT22;13347;50.984;5.822;2024-03-29T03:18:06;9.00;99.90
24446;DHT22;13347;50.984;5.822;2024-03-29T03:20:32;8.90;99.90
24446;DHT22;13347;50.984;5.822;2024-03-29T03:23:00;8.90;99.90
24446;DHT22;13347;50.984;5.822;2024-03-29T03:25:26;8.90;99.90
24446;DHT22;13347;50.984;5.822;2024-03-29T03:27:53;8.90;99.90
24446;DHT22;13347;50.984;5.822;2024-03-29T03:30:19;8.80;1.00
24446;DHT22;13347;50.984;5.822;2024-03-29T03:32:47;8.70;1.00
24446;DHT22;13347;50.984;5.822;2024-03-29T03:35:13;8.70;1.00
24446;DHT22;13347;50.984;5.822;2024-03-29T03:37:40;8.60;1.00
24446;DHT22;13347;50.984;5.822;2024-03-29T03:40:07;8.50;1.00
24446;DHT22;13347;50.984;5.822;2024-03-29T03:42:34;8.50;1.00
24446;DHT22;13347;50.984;5.822;2024-03-29T03:45:00;8.50;1.00
24446;DHT22;13347;50.984;5.822;2024-03-29T03:47:27;8.30;1.00
24446;DHT22;13347;50.984;5.822;2024-03-29T03:49:54;8.30;1.00
24446;DHT22;13347;50.984;5.822;2024-03-29T03:52:21;8.30;1.00
24446;DHT22;13347;50.984;5.822;2024-03-29T03:54:47;8.30;1.00
24446;DHT22;13347;50.984;5.822;2024-03-29T03:57:13;8.30;1.00
24446;DHT22;13347;50.984;5.822;2024-03-29T03:59:39;8.20;1.00
24446;DHT22;13347;50.984;5.822;2024-03-29T04:02:06;8.20;1.00
24446;DHT22;13347;50.984;5.822;2024-03-29T04:04:32;8.00;1.00
24446;DHT22;13347;50.984;5.822;2024-03-29T04:07:00;7.90;1.00
24446;DHT22;13347;50.984;5.822;2024-03-29T04:09:26;7.90;1.00
24446;DHT22;13347;50.984;5.822;2024-03-29T04:11:54;7.90;1.00
24446;DHT22;13347;50.984;5.822;2024-03-29T04:14:19;7.90;1.00
24446;DHT22;13347;50.984;5.822;2024-03-29T04:16:46;7.90;1.00
24446;DHT22;13347;50.984;5.822;2024-03-29T04:19:12;7.90;3.90
24446;DHT22;13347;50.984;5.822;2024-03-29T04:21:39;7.80;19.30
24446;DHT22;13347;50.984;5.822;2024-03-29T04:24:07;7.80;25.60
24446;DHT22;13347;50.984;5.822;2024-03-29T04:26:35;7.90;28.90
24446;DHT22;13347;50.984;5.822;2024-03-29T04:29:02;7.90;27.00
24446;DHT22;13347;50.984;5.822;2024-03-29T04:31:29;8.00;23.60
24446;DHT22;13347;50.984;5.822;2024-03-29T04:33:55;8.00;16.50
24446;DHT22;13347;50.984;5.822;2024-03-29T04:36:22;7.90;31.20
24446;DHT22;13347;50.984;5.822;2024-03-29T04:38:48;8.00;27.70
24446;DHT22;13347;50.984;5.822;2024-03-29T04:41:17;8.00;25.20
24446;DHT22;13347;50.984;5.822;2024-03-29T04:43:44;7.90;34.60
24446;DHT22;13347;50.984;5.822;2024-03-29T04:46:11;7.90;40.50
24446;DHT22;13347;50.984;5.822;2024-03-29T04:48:38;7.90;46.80
24446;DHT22;13347;50.984;5.822;2024-03-29T04:51:05;7.90;43.10
24446;DHT22;13347;50.984;5.822;2024-03-29T04:53:32;7.90;57.40
24446;DHT22;13347;50.984;5.822;2024-03-29T04:55:59;7.80;67.20
24446;DHT22;13347;50.984;5.822;2024-03-29T04:58:28;7.70;82.80
24446;DHT22;13347;50.984;5.822;2024-03-29T05:00:55;7.80;99.90
24446;DHT22;13347;50.984;5.822;2024-03-29T05:03:22;7.90;99.90
24446;DHT22;13347;50.984;5.822;2024-03-29T05:05:50;7.70;99.90
24446;DHT22;13347;50.984;5.822;2024-03-29T05:08:17;7.80;99.90
24446;DHT22;13347;50.984;5.822;2024-03-29T05:10:45;7.90;99.90
24446;DHT22;13347;50.984;5.822;2024-03-29T05:13:12;7.90;99.90
24446;DHT22;13347;50.984;5.822;2024-03-29T05:15:40;7.90;99.90
24446;DHT22;13347;50.984;5.822;2024-03-29T05:18:08;7.90;99.90
24446;DHT22;13347;50.984;5.822;2024-03-29T05:20:35;7.90;99.90
24446;DHT22;13347;50.984;5.822;2024-03-29T05:23:02;7.80;99.90
24446;DHT22;13347;50.984;5.822;2024-03-29T05:25:29;7.80;99.90
24446;DHT22;13347;50.984;5.822;2024-03-29T05:27:56;7.80;99.90
24446;DHT22;13347;50.984;5.822;2024-03-29T05:30:23;7.80;99.90
24446;DHT22;13347;50.984;5.822;2024-03-29T05:32:52;7.80;99.90
24446;DHT22;13347;50.984;5.822;2024-03-29T05:35:19;7.70;99.90
24446;DHT22;13347;50.984;5.822;2024-03-29T05:37:46;8.00;99.90
24446;DHT22;13347;50.984;5.822;2024-03-29T05:40:16;7.90;99.90
24446;DHT22;13347;50.984;5.822;2024-03-29T05:42:43;7.80;99.90
24446;DHT22;13347;50.984;5.822;2024-03-29T05:45:21;7.80;99.90
24446;DHT22;13347;50.984;5.822;2024-03-29T05:47:49;7.70;99.90
24446;DHT22;13347;50.984;5.822;2024-03-29T05:50:17;7.80;99.90
24446;DHT22;13347;50.984;5.822;2024-03-29T05:52:44;7.90;99.90
24446;DHT22;13347;50.984;5.822;2024-03-29T05:55:11;8.10;99.90
24446;DHT22;13347;50.984;5.822;2024-03-29T05:57:38;8.00;98.70
24446;DHT22;13347;50.984;5.822;2024-03-29T06:00:07;8.10;90.70
24446;DHT22;13347;50.984;5.822;2024-03-29T06:02:35;8.00;89.30
24446;DHT22;13347;50.984;5.822;2024-03-29T06:05:02;8.10;87.00
24446;DHT22;13347;50.984;5.822;2024-03-29T06:07:31;8.10;54.40
24446;DHT22;13347;50.984;5.822;2024-03-29T06:09:58;8.10;53.00
24446;DHT22;13347;50.984;5.822;2024-03-29T06:12:26;8.10;54.30
24446;DHT22;13347;50.984;5.822;2024-03-29T06:14:52;8.20;59.70
24446;DHT22;13347;50.984;5.822;2024-03-29T06:17:37;8.10;54.90
24446;DHT22;13347;50.984;5.822;2024-03-29T06:20:04;8.30;80.00
24446;DHT22;13347;50.984;5.822;2024-03-29T06:22:32;8.20;35.60
24446;DHT22;13347;50.984;5.822;2024-03-29T06:24:59;8.30;37.10
24446;DHT22;13347;50.984;5.822;2024-03-29T06:27:30;8.30;27.40
24446;DHT22;13347;50.984;5.822;2024-03-29T06:29:57;8.40;30.00
24446;DHT22;13347;50.984;5.822;2024-03-29T06:32:24;8.60;39.80
24446;DHT22;13347;50.984;5.822;2024-03-29T06:34:51;8.90;1.00
24446;DHT22;13347;50.984;5.822;2024-03-29T06:37:18;9.00;1.00
24446;DHT22;13347;50.984;5.822;2024-03-29T06:39:48;9.00;1.00
24446;DHT22;13347;50.984;5.822;2024-03-29T06:42:15;9.10;1.00
24446;DHT22;13347;50.984;5.822;2024-03-29T06:44:42;9.10;1.00
24446;DHT22;13347;50.984;5.822;2024-03-29T06:47:09;9.10;1.00
24446;DHT22;13347;50.984;5.822;2024-03-29T06:49:36;9.20;1.00
24446;DHT22;13347;50.984;5.822;2024-03-29T06:52:03;9.20;1.00
24446;DHT22;13347;50.984;5.822;2024-03-29T06:54:30;9.40;1.00
24446;DHT22;13347;50.984;5.822;2024-03-29T06:56:59;9.50;1.00
24446;DHT22;13347;50.984;5.822;2024-03-29T06:59:26;9.50;1.00
24446;DHT22;13347;50.984;5.822;2024-03-29T07:01:54;9.60;1.00
24446;DHT22;13347;50.984;5.822;2024-03-29T07:04:21;9.70;1.00
24446;DHT22;13347;50.984;5.822;2024-03-29T07:06:49;9.80;1.00
24446;DHT22;13347;50.984;5.822;2024-03-29T07:09:17;9.80;1.00
24446;DHT22;13347;50.984;5.822;2024-03-29T07:11:45;9.90;1.00
24446;DHT22;13347;50.984;5.822;2024-03-29T07:14:13;9.90;1.00
24446;DHT22;13347;50.984;5.822;2024-03-29T07:16:40;10.00;1.00
24446;DHT22;13347;50.984;5.822;2024-03-29T07:19:07;10.00;1.00
24446;DHT22;13347;50.984;5.822;2024-03-29T07:21:34;10.00;1.00
24446;DHT22;13347;50.984;5.822;2024-03-29T07:24:01;10.00;1.00
24446;DHT22;13347;50.984;5.822;2024-03-29T07:26:28;10.00;1.00
24446;DHT22;13347;50.984;5.822;2024-03-29T07:28:55;10.00;1.00
24446;DHT22;13347;50.984;5.822;2024-03-29T07:31:23;9.90;1.00
24446;DHT22;13347;50.984;5.822;2024-03-29T07:33:50;9.70;24.80
24446;DHT22;13347;50.984;5.822;2024-03-29T07:36:17;9.70;65.80
24446;DHT22;13347;50.984;5.822;2024-03-29T07:38:44;9.70;99.90
24446;DHT22;13347;50.984;5.822;2024-03-29T07:41:11;9.60;99.90
24446;DHT22;13347;50.984;5.822;2024-03-29T07:43:39;9.70;99.90
24446;DHT22;13347;50.984;5.822;2024-03-29T07:46:06;9.80;99.90
24446;DHT22;13347;50.984;5.822;2024-03-29T07:48:35;9.90;99.90
24446;DHT22;13347;50.984;5.822;2024-03-29T07:51:02;10.00;99.90
24446;DHT22;13347;50.984;5.822;2024-03-29T07:53:29;10.10;99.90
24446;DHT22;13347;50.984;5.822;2024-03-29T07:55:57;10.10;99.90
24446;DHT22;13347;50.984;5.822;2024-03-29T07:58:24;10.00;99.90
24446;DHT22;13347;50.984;5.822;2024-03-29T08:00:51;10.20;99.90
24446;DHT22;13347;50.984;5.822;2024-03-29T08:03:18;10.40;99.90
24446;DHT22;13347;50.984;5.822;2024-03-29T08:05:55;10.70;92.00
24446;DHT22;13347;50.984;5.822;2024-03-29T08:08:22;10.70;62.60
24446;DHT22;13347;50.984;5.822;2024-03-29T08:10:50;10.80;42.70
24446;DHT22;13347;50.984;5.822;2024-03-29T08:13:17;10.90;28.80
24446;DHT22;13347;50.984;5.822;2024-03-29T08:15:46;10.90;3.50
24446;DHT22;13347;50.984;5.822;2024-03-29T08:18:13;11.00;7.40
24446;DHT22;13347;50.984;5.822;2024-03-29T08:20:40;11.00;1.00
24446;DHT22;13347;50.984;5.822;2024-03-29T08:23:08;11.00;1.00
24446;DHT22;13347;50.984;5.822;2024-03-29T08:25:35;10.90;1.00
24446;DHT22;13347;50.984;5.822;2024-03-29T08:28:02;10.90;1.00
24446;DHT22;13347;50.984;5.822;2024-03-29T08:30:29;10.90;5.70
24446;DHT22;13347;50.984;5.822;2024-03-29T08:33:00;10.90;10.00
24446;DHT22;13347;50.984;5.822;2024-03-29T08:35:29;10.90;12.90
24446;DHT22;13347;50.984;5.822;2024-03-29T08:37:56;11.00;5.00
24446;DHT22;13347;50.984;5.822;2024-03-29T08:40:24;11.30;1.00
24446;DHT22;13347;50.984;5.822;2024-03-29T08:42:54;11.50;1.00
24446;DHT22;13347;50.984;5.822;2024-03-29T08:45:21;11.90;1.00
24446;DHT22;13347;50.984;5.822;2024-03-29T08:47:48;12.20;1.00
24446;DHT22;13347;50.984;5.822;2024-03-29T08:50:15;12.40;1.00
24446;DHT22;13347;50.984;5.822;2024-03-29T08:52:42;12.80;1.00
24446;DHT22;13347;50.984;5.822;2024-03-29T08:55:10;13.00;1.00
24446;DHT22;13347;50.984;5.822;2024-03-29T08:57:39;13.00;1.00
24446;DHT22;13347;50.984;5.822;2024-03-29T09:00:08;12.80;1.00
24446;DHT22;13347;50.984;5.822;2024-03-29T09:02:35;13.00;1.00
24446;DHT22;13347;50.984;5.822;2024-03-29T09:05:02;13.00;1.00
24446;DHT22;13347;50.984;5.822;2024-03-29T09:07:29;13.10;1.00
24446;DHT22;13347;50.984;5.822;2024-03-29T09:09:56;13.10;1.00
24446;DHT22;13347;50.984;5.822;2024-03-29T09:12:23;13.10;1.00
24446;DHT22;13347;50.984;5.822;2024-03-29T09:14:51;13.10;1.00
24446;DHT22;13347;50.984;5.822;2024-03-29T09:17:18;13.10;1.00
24446;DHT22;13347;50.984;5.822;2024-03-29T09:19:49;13.00;99.90
24446;DHT22;13347;50.984;5.822;2024-03-29T09:22:16;13.00;1.00
24446;DHT22;13347;50.984;5.822;2024-03-29T09:24:43;12.90;1.00
24446;DHT22;13347;50.984;5.822;2024-03-29T09:27:10;12.80;1.00
24446;DHT22;13347;50.984;5.822;2024-03-29T09:29:37;12.70;99.90
24446;DHT22;13347;50.984;5.822;2024-03-29T09:32:06;12.80;99.90
24446;DHT22;13347;50.984;5.822;2024-03-29T09:34:33;12.90;1.00
24446;DHT22;13347;50.984;5.822;2024-03-29T09:37:00;13.00;1.00
24446;DHT22;13347;50.984;5.822;2024-03-29T09:39:27;13.20;1.00
24446;DHT22;13347;50.984;5.822;2024-03-29T09:41:55;13.20;99.90
24446;DHT22;13347;50.984;5.822;2024-03-29T09:44:24;13.20;99.90
24446;DHT22;13347;50.984;5.822;2024-03-29T09:46:53;13.10;82.30
24446;DHT22;13347;50.984;5.822;2024-03-29T09:49:22;13.20;99.90
24446;DHT22;13347;50.984;5.822;2024-03-29T09:51:49;13.30;1.00
24446;DHT22;13347;50.984;5.822;2024-03-29T09:54:16;13.30;99.90
24446;DHT22;13347;50.984;5.822;2024-03-29T09:56:43;13.40;1.00
24446;DHT22;13347;50.984;5.822;2024-03-29T09:59:10;13.40;1.00
24446;DHT22;13347;50.984;5.822;2024-03-29T10:01:37;13.30;1.00
24446;DHT22;13347;50.984;5.822;2024-03-29T10:04:04;13.50;1.00
24446;DHT22;13347;50.984;5.822;2024-03-29T10:06:34;13.60;1.00
24446;DHT22;13347;50.984;5.822;2024-03-29T10:09:02;13.80;1.00
24446;DHT22;13347;50.984;5.822;2024-03-29T10:11:29;13.90;1.00
24446;DHT22;13347;50.984;5.822;2024-03-29T10:13:57;14.20;99.90
24446;DHT22;13347;50.984;5.822;2024-03-29T10:16:24;14.10;1.00
24446;DHT22;13347;50.984;5.822;2024-03-29T10:18:52;13.90;1.00
24446;DHT22;13347;50.984;5.822;2024-03-29T10:21:24;14.10;1.00
24446;DHT22;13347;50.984;5.822;2024-03-29T10:23:53;14.10;1.00
24446;DHT22;13347;50.984;5.822;2024-03-29T10:26:20;13.90;1.00
24446;DHT22;13347;50.984;5.822;2024-03-29T10:28:47;13.80;1.00
24446;DHT22;13347;50.984;5.822;2024-03-29T10:31:17;13.80;1.00
24446;DHT22;13347;50.984;5.822;2024-03-29T10:33:45;14.00;1.00
24446;DHT22;13347;50.984;5.822;2024-03-29T10:36:13;14.40;99.90
24446;DHT22;13347;50.984;5.822;2024-03-29T10:38:40;14.50;1.00
24446;DHT22;13347;50.984;5.822;2024-03-29T10:41:08;14.90;1.00
24446;DHT22;13347;50.984;5.822;2024-03-29T10:43:36;15.10;99.90
24446;DHT22;13347;50.984;5.822;2024-03-29T10:46:04;14.80;99.90
24446;DHT22;13347;50.984;5.822;2024-03-29T10:48:31;14.70;70.00
24446;DHT22;13347;50.984;5.822;2024-03-29T10:50:58;14.50;1.00
24446;DHT22;13347;50.984;5.822;2024-03-29T10:53:26;14.50;1.00
24446;DHT22;13347;50.984;5.822;2024-03-29T10:55:53;14.40;1.00
24446;DHT22;13347;50.984;5.822;2024-03-29T10:58:22;14.40;1.00
24446;DHT22;13347;50.984;5.822;2024-03-29T11:00:53;14.30;1.00
24446;DHT22;13347;50.984;5.822;2024-03-29T11:03:23;14.40;1.00
24446;DHT22;13347;50.984;5.822;2024-03-29T11:05:52;14.50;1.00
24446;DHT22;13347;50.984;5.822;2024-03-29T11:08:22;14.80;1.00
24446;DHT22;13347;50.984;5.822;2024-03-29T11:10:50;14.40;1.00
24446;DHT22;13347;50.984;5.822;2024-03-29T11:13:19;14.10;99.90
24446;DHT22;13347;50.984;5.822;2024-03-29T11:15:50;14.20;1.00
24446;DHT22;13347;50.984;5.822;2024-03-29T11:18:17;14.60;1.00
24446;DHT22;13347;50.984;5.822;2024-03-29T11:20:45;14.70;99.90
24446;DHT22;13347;50.984;5.822;2024-03-29T11:23:17;14.70;99.90
24446;DHT22;13347;50.984;5.822;2024-03-29T11:25:45;14.50;99.90
24446;DHT22;13347;50.984;5.822;2024-03-29T11:28:13;14.60;99.90
24446;DHT22;13347;50.984;5.822;2024-03-29T11:30:41;14.50;99.90
24446;DHT22;13347;50.984;5.822;2024-03-29T11:33:27;14.30;99.90
24446;DHT22;13347;50.984;5.822;2024-03-29T11:35:54;14.30;99.90
24446;DHT22;13347;50.984;5.822;2024-03-29T11:38:21;13.90;99.90
24446;DHT22;13347;50.984;5.822;2024-03-29T11:41:00;13.90;1.00
24446;DHT22;13347;50.984;5.822;2024-03-29T11:43:27;14.00;1.00
24446;DHT22;13347;50.984;5.822;2024-03-29T11:45:54;14.00;1.00
24446;DHT22;13347;50.984;5.822;2024-03-29T11:48:23;14.20;1.00
24446;DHT22;13347;50.984;5.822;2024-03-29T11:50:52;14.40;1.00
24446;DHT22;13347;50.984;5.822;2024-03-29T11:53:19;14.50;1.00
24446;DHT22;13347;50.984;5.822;2024-03-29T11:55:46;14.50;1.00
24446;DHT22;13347;50.984;5.822;2024-03-29T11:58:14;14.40;1.00
24446;DHT22;13347;50.984;5.822;2024-03-29T12:00:41;14.60;99.90
24446;DHT22;13347;50.984;5.822;2024-03-29T12:03:11;14.50;99.90
24446;DHT22;13347;50.984;5.822;2024-03-29T12:05:38;14.60;1.00
24446;DHT22;13347;50.984;5.822;2024-03-29T12:08:06;14.90;99.90
24446;DHT22;13347;50.984;5.822;2024-03-29T12:10:35;15.10;99.90
24446;DHT22;13347;50.984;5.822;2024-03-29T12:13:02;15.20;99.90
24446;DHT22;13347;50.984;5.822;2024-03-29T12:15:29;15.20;99.90
24446;DHT22;13347;50.984;5.822;2024-03-29T12:17:57;15.20;99.90
24446;DHT22;13347;50.984;5.822;2024-03-29T12:20:24;15.20;99.90
24446;DHT22;13347;50.984;5.822;2024-03-29T12:22:51;15.20;99.90
24446;DHT22;13347;50.984;5.822;2024-03-29T12:25:20;15.60;56.30
24446;DHT22;13347;50.984;5.822;2024-03-29T12:27:48;15.40;6.50
24446;DHT22;13347;50.984;5.822;2024-03-29T12:30:15;15.20;1.00
24446;DHT22;13347;50.984;5.822;2024-03-29T12:32:42;15.50;1.00
24446;DHT22;13347;50.984;5.822;2024-03-29T12:35:09;15.50;1.00
24446;DHT22;13347;50.984;5.822;2024-03-29T12:37:36;15.60;1.00
24446;DHT22;13347;50.984;5.822;2024-03-29T12:40:04;15.70;1.00
24446;DHT22;13347;50.984;5.822;2024-03-29T12:42:39;15.80;1.00
24446;DHT22;13347;50.984;5.822;2024-03-29T12:45:07;15.50;1.00
24446;DHT22;13347;50.984;5.822;2024-03-29T12:47:34;15.40;1.00
24446;DHT22;13347;50.984;5.822;2024-03-29T12:50:02;15.80;1.00
24446;DHT22;13347;50.984;5.822;2024-03-29T12:52:36;15.80;1.00
24446;DHT22;13347;50.984;5.822;2024-03-29T12:55:03;15.60;1.00
24446;DHT22;13347;50.984;5.822;2024-03-29T12:57:31;15.70;1.00
24446;DHT22;13347;50.984;5.822;2024-03-29T12:59:59;15.90;1.00
24446;DHT22;13347;50.984;5.822;2024-03-29T13:02:26;16.30;1.00
24446;DHT22;13347;50.984;5.822;2024-03-29T13:04:53;16.30;1.00
24446;DHT22;13347;50.984;5.822;2024-03-29T13:07:20;16.40;1.00
24446;DHT22;13347;50.984;5.822;2024-03-29T13:09:47;16.80;1.00
24446;DHT22;13347;50.984;5.822;2024-03-29T13:12:14;16.80;1.00
24446;DHT22;13347;50.984;5.822;2024-03-29T13:14:41;16.80;1.00
24446;DHT22;13347;50.984;5.822;2024-03-29T13:17:10;16.80;99.90
24446;DHT22;13347;50.984;5.822;2024-03-29T13:19:37;16.50;99.90
24446;DHT22;13347;50.984;5.822;2024-03-29T13:22:04;16.60;99.90
24446;DHT22;13347;50.984;5.822;2024-03-29T13:24:32;16.20;2.10
24446;DHT22;13347;50.984;5.822;2024-03-29T13:26:59;16.20;99.90
24446;DHT22;13347;50.984;5.822;2024-03-29T13:29:26;16.30;47.60
24446;DHT22;13347;50.984;5.822;2024-03-29T13:31:53;16.40;60.60
24446;DHT22;13347;50.984;5.822;2024-03-29T13:36:56;16.50;1.00
24446;DHT22;13347;50.984;5.822;2024-03-29T13:39:23;16.50;1.00
24446;DHT22;13347;50.984;5.822;2024-03-29T13:41:50;16.50;1.00
24446;DHT22;13347;50.984;5.822;2024-03-29T13:44:18;16.50;1.00
24446;DHT22;13347;50.984;5.822;2024-03-29T13:46:45;16.40;1.00
24446;DHT22;13347;50.984;5.822;2024-03-29T13:49:12;16.50;1.00
24446;DHT22;13347;50.984;5.822;2024-03-29T13:51:39;16.50;1.00
24446;DHT22;13347;50.984;5.822;2024-03-29T13:54:08;16.70;1.00
24446;DHT22;13347;50.984;5.822;2024-03-29T13:56:35;16.50;1.00
24446;DHT22;13347;50.984;5.822;2024-03-29T13:59:02;16.50;1.00
24446;DHT22;13347;50.984;5.822;2024-03-29T14:01:29;16.30;1.00
24446;DHT22;13347;50.984;5.822;2024-03-29T14:03:56;15.90;1.00
24446;DHT22;13347;50.984;5.822;2024-03-29T14:06:23;16.00;1.00
24446;DHT22;13347;50.984;5.822;2024-03-29T14:08:50;16.10;1.00
24446;DHT22;13347;50.984;5.822;2024-03-29T14:11:18;16.20;1.00
24446;DHT22;13347;50.984;5.822;2024-03-29T14:13:45;16.30;1.00
24446;DHT22;13347;50.984;5.822;2024-03-29T14:16:15;16.50;1.00
24446;DHT22;13347;50.984;5.822;2024-03-29T14:18:41;16.50;1.00
24446;DHT22;13347;50.984;5.822;2024-03-29T14:21:08;16.60;1.00
24446;DHT22;13347;50.984;5.822;2024-03-29T14:23:36;16.40;1.00
24446;DHT22;13347;50.984;5.822;2024-03-29T14:26:03;16.30;1.00
24446;DHT22;13347;50.984;5.822;2024-03-29T14:28:31;16.20;1.00
24446;DHT22;13347;50.984;5.822;2024-03-29T14:30:58;16.00;1.00
24446;DHT22;13347;50.984;5.822;2024-03-29T14:33:25;15.90;1.00
24446;DHT22;13347;50.984;5.822;2024-03-29T14:35:52;16.00;1.00
24446;DHT22;13347;50.984;5.822;2024-03-29T14:38:19;16.10;1.00
24446;DHT22;13347;50.984;5.822;2024-03-29T14:40:47;16.00;1.00
24446;DHT22;13347;50.984;5.822;2024-03-29T14:43:14;16.00;1.00
24446;DHT22;13347;50.984;5.822;2024-03-29T14:45:43;16.00;1.00
24446;DHT22;13347;50.984;5.822;2024-03-29T14:48:10;15.80;1.00
24446;DHT22;13347;50.984;5.822;2024-03-29T14:50:37;15.80;1.00
24446;DHT22;13347;50.984;5.822;2024-03-29T14:53:04;15.80;1.00
24446;DHT22;13347;50.984;5.822;2024-03-29T14:55:31;15.80;1.00
24446;DHT22;13347;50.984;5.822;2024-03-29T14:57:58;15.80;1.00
24446;DHT22;13347;50.984;5.822;2024-03-29T15:00:25;15.90;1.00
24446;DHT22;13347;50.984;5.822;2024-03-29T15:02:53;16.00;1.00
24446;DHT22;13347;50.984;5.822;2024-03-29T15:05:20;16.00;1.00
24446;DHT22;13347;50.984;5.822;2024-03-29T15:07:47;16.20;1.00
24446;DHT22;13347;50.984;5.822;2024-03-29T15:10:14;16.10;1.00
24446;DHT22;13347;50.984;5.822;2024-03-29T15:12:41;16.20;1.00
24446;DHT22;13347;50.984;5.822;2024-03-29T15:15:08;16.20;1.00
24446;DHT22;13347;50.984;5.822;2024-03-29T15:17:35;16.30;1.00
24446;DHT22;13347;50.984;5.822;2024-03-29T15:20:04;16.60;1.00
24446;DHT22;13347;50.984;5.822;2024-03-29T15:22:34;16.60;1.00
24446;DHT22;13347;50.984;5.822;2024-03-29T15:25:01;16.20;1.00
24446;DHT22;13347;50.984;5.822;2024-03-29T15:27:28;15.90;1.00
24446;DHT22;13347;50.984;5.822;2024-03-29T15:30:22;15.70;1.00
24446;DHT22;13347;50.984;5.822;2024-03-29T15:32:48;15.70;1.00
24446;DHT22;13347;50.984;5.822;2024-03-29T15:35:17;15.70;1.00
24446;DHT22;13347;50.984;5.822;2024-03-29T15:37:44;15.60;1.00
24446;DHT22;13347;50.984;5.822;2024-03-29T15:40:14;15.50;1.00
24446;DHT22;13347;50.984;5.822;2024-03-29T15:42:41;15.50;1.00
24446;DHT22;13347;50.984;5.822;2024-03-29T15:45:09;15.50;1.00
24446;DHT22;13347;50.984;5.822;2024-03-29T15:47:36;15.40;1.00
24446;DHT22;13347;50.984;5.822;2024-03-29T15:50:03;15.30;1.00